createdAt,value
2022-11-15T00:00:29.619Z,4.65
2022-11-15T00:03:53.835Z,4.60
2022-11-15T00:07:40.273Z,4.66
2022-11-15T00:10:57.589Z,4.59
2022-11-15T00:14:19.082Z,4.42
2022-11-15T00:17:41.841Z,4.51
2022-11-15T00:21:09.753Z,4.63
2022-11-15T00:24:31.418Z,4.67
2022-11-15T00:27:57.535Z,4.68
2022-11-15T00:31:19.299Z,4.66
2022-11-15T00:34:42.511Z,4.63
2022-11-15T00:38:04.581Z,4.62
2022-11-15T00:41:26.193Z,4.39
2022-11-15T00:44:47.882Z,4.49
2022-11-15T00:48:09.842Z,4.54
2022-11-15T00:51:32.560Z,4.53
2022-11-15T00:54:54.462Z,4.54
2022-11-15T00:58:16.191Z,4.54
2022-11-15T01:01:37.823Z,4.53
2022-11-15T01:04:59.492Z,4.47
2022-11-15T01:08:22.583Z,4.47
2022-11-15T01:11:44.660Z,4.44
2022-11-15T01:15:07.678Z,4.44
2022-11-15T01:18:29.084Z,4.42
2022-11-15T01:21:51.301Z,4.42
2022-11-15T01:25:14.069Z,4.34
2022-11-15T01:28:37.285Z,4.34
2022-11-15T01:31:58.609Z,4.24
2022-11-15T01:35:21.073Z,4.26
2022-11-15T01:38:42.790Z,4.27
2022-11-15T01:42:05.969Z,4.14
2022-11-15T01:45:28.501Z,4.22
2022-11-15T01:48:52.300Z,4.17
2022-11-15T01:52:19.656Z,4.02
2022-11-15T01:55:41.131Z,4.03
2022-11-15T01:59:06.877Z,4.03
2022-11-15T02:02:28.983Z,4.05
2022-11-15T02:05:52.269Z,4.08
2022-11-15T02:09:14.952Z,4.15
2022-11-15T02:12:36.843Z,4.19
2022-11-15T02:16:07.100Z,4.17
2022-11-15T02:19:56.873Z,4.16
2022-11-15T02:23:53.105Z,4.12
2022-11-15T02:27:40.263Z,4.00
2022-11-15T02:31:08.423Z,4.02
2022-11-15T02:34:41.837Z,3.99
2022-11-15T02:38:12.163Z,4.06
2022-11-15T02:41:43.047Z,4.04
2022-11-15T02:45:10.480Z,3.94
2022-11-15T02:48:34.379Z,3.96
2022-11-15T02:51:57.919Z,3.94
2022-11-15T02:55:32.589Z,3.79
2022-11-15T02:59:15.773Z,3.79
2022-11-15T03:03:05.861Z,3.85
2022-11-15T03:06:37.658Z,3.95
2022-11-15T03:10:08.229Z,3.91
2022-11-15T03:13:37.387Z,3.94
2022-11-15T03:17:05.125Z,3.84
2022-11-15T03:20:29.109Z,3.78
2022-11-15T03:23:53.675Z,3.77
2022-11-15T03:27:21.745Z,3.81
2022-11-15T03:30:45.519Z,3.73
2022-11-15T03:34:13.497Z,3.73
2022-11-15T03:37:43.382Z,3.73
2022-11-15T03:41:15.946Z,3.67
2022-11-15T03:44:47.714Z,3.66
2022-11-15T03:48:16.924Z,3.68
2022-11-15T03:51:38.637Z,3.66
2022-11-15T03:55:03.874Z,3.79
2022-11-15T03:58:27.012Z,3.79
2022-11-15T04:01:48.930Z,3.74
2022-11-15T04:05:10.434Z,3.63
2022-11-15T04:08:32.458Z,3.72
2022-11-15T04:11:54.686Z,3.78
2022-11-15T04:15:22.623Z,3.83
2022-11-15T04:18:44.333Z,3.84
2022-11-15T04:22:23.706Z,3.85
2022-11-15T04:25:46.753Z,3.87
2022-11-15T04:29:25.904Z,3.85
2022-11-15T04:32:48.937Z,3.86
2022-11-15T04:36:28.618Z,3.83
2022-11-15T04:39:50.514Z,3.74
2022-11-15T04:43:13.918Z,3.73
2022-11-15T04:46:35.336Z,3.80
2022-11-15T04:49:58.359Z,3.82
2022-11-15T04:53:20.192Z,3.77
2022-11-15T04:56:42.106Z,3.79
2022-11-15T05:00:05.617Z,3.80
2022-11-15T05:03:44.357Z,3.84
2022-11-15T05:07:07.678Z,3.83
2022-11-15T05:10:29.246Z,3.81
2022-11-15T05:13:51.929Z,3.79
2022-11-15T05:17:13.636Z,3.77
2022-11-15T05:20:35.824Z,3.79
2022-11-15T05:23:59.384Z,3.76
2022-11-15T05:27:20.834Z,3.77
2022-11-15T05:30:42.607Z,3.60
2022-11-15T05:34:06.890Z,3.49
2022-11-15T05:37:28.577Z,3.48
2022-11-15T05:40:51.776Z,3.51
2022-11-15T05:44:17.386Z,3.47
2022-11-15T05:47:40.962Z,3.40
2022-11-15T05:51:04.666Z,3.39
2022-11-15T05:54:27.473Z,3.43
2022-11-15T05:57:51.000Z,3.36
2022-11-15T06:01:12.877Z,3.44
2022-11-15T06:04:34.709Z,3.32
2022-11-15T06:07:59.794Z,3.39
2022-11-15T06:11:21.242Z,3.42
2022-11-15T06:14:44.047Z,3.44
2022-11-15T06:18:06.711Z,3.36
2022-11-15T06:21:30.076Z,3.31
2022-11-15T06:24:51.826Z,3.41
2022-11-15T06:28:13.521Z,3.50
2022-11-15T06:31:38.310Z,3.47
2022-11-15T06:35:00.123Z,3.52
2022-11-15T06:38:21.891Z,3.65
2022-11-15T06:41:43.529Z,3.83
2022-11-15T06:45:06.834Z,3.89
2022-11-15T06:48:30.007Z,3.93
2022-11-15T06:51:51.626Z,3.94
2022-11-15T06:55:13.421Z,3.93
2022-11-15T06:58:35.995Z,3.92
2022-11-15T07:01:57.503Z,3.88
2022-11-15T07:05:20.734Z,3.86
2022-11-15T07:08:43.543Z,3.79
2022-11-15T07:12:10.010Z,3.85
2022-11-15T07:15:32.249Z,3.97
2022-11-15T07:18:54.787Z,4.04
2022-11-15T07:22:17.557Z,4.10
2022-11-15T07:25:42.164Z,3.99
2022-11-15T07:29:04.156Z,4.02
2022-11-15T07:32:26.811Z,4.00
2022-11-15T07:35:50.186Z,4.02
2022-11-15T07:39:17.172Z,4.09
2022-11-15T07:42:54.632Z,4.14
2022-11-15T07:46:16.978Z,4.19
2022-11-15T07:49:38.543Z,4.29
2022-11-15T07:53:01.761Z,4.42
2022-11-15T07:56:30.091Z,4.55
2022-11-15T07:59:52.192Z,4.64
2022-11-15T08:03:21.304Z,4.71
2022-11-15T08:06:43.719Z,4.83
2022-11-15T08:10:07.033Z,4.85
2022-11-15T08:13:33.756Z,4.89
2022-11-15T08:16:56.925Z,5.05
2022-11-15T08:20:28.352Z,5.27
2022-11-15T08:23:51.160Z,5.33
2022-11-15T08:27:16.558Z,5.41
2022-11-15T08:30:44.048Z,5.61
2022-11-15T08:34:06.317Z,5.77
2022-11-15T08:37:27.814Z,5.81
2022-11-15T08:40:49.550Z,6.04
2022-11-15T08:44:11.241Z,6.21
2022-11-15T08:47:34.471Z,6.29
2022-11-15T08:50:56.735Z,6.45
2022-11-15T08:54:18.884Z,6.57
2022-11-15T08:57:46.811Z,6.67
2022-11-15T09:01:18.344Z,6.73
2022-11-15T09:04:51.684Z,6.92
2022-11-15T09:08:40.858Z,7.07
2022-11-15T09:12:01.190Z,7.21
2022-11-15T09:15:24.428Z,7.23
2022-11-15T09:18:46.257Z,7.36
2022-11-15T09:22:10.562Z,7.47
2022-11-15T09:25:33.310Z,7.45
2022-11-15T09:28:55.123Z,7.55
2022-11-15T09:32:16.725Z,7.64
2022-11-15T09:35:38.587Z,7.82
2022-11-15T09:39:01.976Z,7.96
2022-11-15T09:42:53.845Z,8.10
2022-11-15T09:46:22.690Z,8.18
2022-11-15T09:49:44.598Z,8.34
2022-11-15T09:53:00.999Z,8.39
2022-11-15T09:56:15.224Z,8.60
2022-11-15T10:03:31.673Z,8.79
2022-11-15T10:06:41.722Z,8.84
2022-11-15T10:09:51.253Z,8.95
2022-11-15T10:12:55.991Z,9.02
2022-11-15T10:16:13.223Z,9.21
2022-11-15T10:19:28.702Z,9.34
2022-11-15T10:22:38.882Z,9.48
2022-11-15T10:25:46.424Z,9.62
2022-11-15T10:28:52.337Z,9.71
2022-11-15T10:31:55.390Z,9.74
2022-11-15T10:34:58.307Z,9.74
2022-11-15T10:38:08.605Z,9.80
2022-11-15T10:41:18.134Z,9.72
2022-11-15T10:44:30.986Z,9.86
2022-11-15T10:47:39.894Z,10.08
2022-11-15T10:50:45.317Z,10.31
2022-11-15T10:53:49.022Z,10.55
2022-11-15T10:56:55.368Z,10.86
2022-11-15T11:00:04.484Z,10.61
2022-11-15T11:03:28.622Z,10.79
2022-11-15T11:06:34.363Z,11.02
2022-11-15T11:09:39.983Z,11.18
2022-11-15T11:12:48.587Z,11.26
2022-11-15T11:16:07.678Z,11.33
2022-11-15T11:19:33.663Z,11.56
2022-11-15T11:22:53.467Z,11.72
2022-11-15T11:26:13.874Z,11.95
2022-11-15T11:29:31.421Z,12.05
2022-11-15T11:32:59.749Z,12.18
2022-11-15T11:36:17.945Z,12.39
2022-11-15T11:39:32.754Z,12.39
2022-11-15T11:42:50.415Z,12.53
2022-11-15T11:46:16.862Z,12.64
2022-11-15T11:49:30.613Z,12.65
2022-11-15T11:52:41.397Z,12.63
2022-11-15T11:55:50.006Z,12.75
2022-11-15T11:58:56.250Z,12.88
2022-11-15T12:02:03.463Z,13.06
2022-11-15T12:05:16.386Z,13.30
2022-11-15T12:08:35.574Z,13.43
2022-11-15T12:11:53.194Z,13.35
2022-11-15T12:14:59.924Z,13.22
2022-11-15T12:18:03.740Z,13.13
2022-11-15T12:21:16.779Z,12.99
2022-11-15T12:24:27.879Z,12.88
2022-11-15T12:27:43.800Z,12.99
2022-11-15T12:30:55.940Z,13.00
2022-11-15T12:34:04.388Z,13.08
2022-11-15T12:37:59.312Z,13.10
2022-11-15T12:41:17.975Z,13.10
2022-11-15T12:45:00.925Z,13.13
2022-11-15T12:48:58.486Z,13.09
2022-11-15T12:52:11.296Z,13.04
2022-11-15T12:55:35.085Z,13.21
2022-11-15T12:58:47.734Z,13.28
2022-11-15T13:02:20.143Z,13.27
2022-11-15T13:06:08.454Z,13.25
2022-11-15T13:10:00.291Z,13.39
2022-11-15T13:13:07.019Z,13.42
2022-11-15T13:16:10.109Z,13.46
2022-11-15T13:19:13.547Z,13.54
2022-11-15T13:22:34.146Z,13.52
2022-11-15T13:26:03.675Z,13.63
2022-11-15T13:29:18.699Z,13.57
2022-11-15T13:32:22.521Z,13.55
2022-11-15T13:35:27.994Z,13.51
2022-11-15T13:38:35.160Z,13.49
2022-11-15T13:41:49.523Z,13.32
2022-11-15T13:45:02.245Z,13.20
2022-11-15T13:48:07.119Z,13.17
2022-11-15T13:51:19.414Z,13.14
2022-11-15T13:54:28.086Z,12.97
2022-11-15T13:57:39.549Z,12.88
2022-11-15T14:00:46.441Z,12.90
2022-11-15T14:03:58.226Z,12.71
2022-11-15T14:07:04.274Z,12.69
2022-11-15T14:10:27.444Z,12.67
2022-11-15T14:13:33.744Z,12.65
2022-11-15T14:16:40.532Z,12.51
2022-11-15T14:19:43.956Z,12.39
2022-11-15T14:22:54.813Z,12.29
2022-11-15T14:25:59.776Z,12.21
2022-11-15T14:29:24.462Z,12.01
2022-11-15T14:32:30.599Z,11.98
2022-11-15T14:35:35.529Z,11.95
2022-11-15T14:38:38.544Z,11.96
2022-11-15T14:41:41.945Z,11.97
2022-11-15T14:44:46.266Z,12.04
2022-11-15T14:47:51.045Z,11.95
2022-11-15T14:50:54.076Z,11.88
2022-11-15T14:53:57.214Z,11.72
2022-11-15T14:57:00.182Z,11.62
2022-11-15T15:00:04.129Z,11.58
2022-11-15T15:03:17.345Z,11.50
2022-11-15T15:06:20.769Z,11.44
2022-11-15T15:09:24.229Z,11.29
2022-11-15T15:12:27.194Z,11.27
2022-11-15T15:15:35.451Z,11.23
2022-11-15T15:18:39.733Z,11.17
2022-11-15T15:21:43.185Z,11.05
2022-11-15T15:24:47.346Z,10.90
2022-11-15T15:27:51.461Z,10.73
2022-11-15T15:30:54.626Z,10.57
2022-11-15T15:34:02.406Z,10.52
2022-11-15T15:37:26.737Z,10.62
2022-11-15T15:40:32.152Z,10.55
2022-11-15T15:43:35.127Z,10.42
2022-11-15T15:46:38.730Z,10.22
2022-11-15T15:49:43.962Z,10.13
2022-11-15T15:52:46.914Z,10.07
2022-11-15T15:55:49.882Z,10.00
2022-11-15T15:58:53.791Z,9.94
2022-11-15T16:01:56.791Z,9.95
2022-11-15T16:05:01.178Z,9.95
2022-11-15T16:08:05.770Z,9.83
2022-11-15T16:11:10.517Z,9.81
2022-11-15T16:14:14.027Z,9.72
2022-11-15T16:17:21.316Z,9.73
2022-11-15T16:20:37.091Z,9.64
2022-11-15T16:23:40.116Z,9.59
2022-11-15T16:26:43.645Z,9.71
2022-11-15T16:29:47.797Z,9.72
2022-11-15T16:32:50.831Z,9.68
2022-11-15T16:35:55.258Z,9.56
2022-11-15T16:38:58.707Z,9.43
2022-11-15T16:42:03.421Z,9.31
2022-11-15T16:45:07.761Z,9.16
2022-11-15T16:48:23.398Z,9.33
2022-11-15T16:51:28.000Z,9.29
2022-11-15T16:54:31.556Z,9.22
2022-11-15T16:57:34.722Z,9.14
2022-11-15T17:00:37.981Z,9.13
2022-11-15T17:03:40.937Z,9.01
2022-11-15T17:06:49.230Z,8.96
2022-11-15T17:09:52.470Z,8.89
2022-11-15T17:12:59.851Z,8.78
2022-11-15T17:16:11.822Z,8.73
2022-11-15T17:19:16.240Z,8.66
2022-11-15T17:22:20.498Z,8.51
2022-11-15T17:25:24.045Z,8.49
2022-11-15T17:28:27.010Z,8.43
2022-11-15T17:31:33.663Z,8.36
2022-11-15T17:34:36.933Z,8.30
2022-11-15T17:37:41.194Z,8.29
2022-11-15T17:40:44.417Z,8.20
2022-11-15T17:43:47.709Z,8.22
2022-11-15T17:46:50.663Z,8.19
2022-11-15T17:49:56.991Z,8.16
2022-11-15T17:53:01.849Z,8.13
2022-11-15T17:56:07.283Z,8.14
2022-11-15T17:59:14.789Z,8.00
2022-11-15T18:02:20.343Z,8.01
2022-11-15T18:05:23.736Z,7.96
2022-11-15T18:08:28.115Z,7.93
2022-11-15T18:11:33.484Z,7.88
2022-11-15T18:14:36.676Z,7.82
2022-11-15T18:17:39.805Z,7.81
2022-11-15T18:20:42.808Z,7.76
2022-11-15T18:23:48.143Z,7.66
2022-11-15T18:26:51.558Z,7.65
2022-11-15T18:29:54.534Z,7.62
2022-11-15T18:32:57.505Z,7.57
2022-11-15T18:36:02.515Z,7.55
2022-11-15T18:39:07.188Z,7.45
2022-11-15T18:42:10.277Z,7.45
2022-11-15T18:45:14.451Z,7.38
2022-11-15T18:48:17.418Z,7.31
2022-11-15T18:51:22.635Z,7.36
2022-11-15T18:54:31.072Z,7.33
2022-11-15T18:57:34.602Z,7.29
2022-11-15T19:00:37.693Z,7.18
2022-11-15T19:03:44.148Z,7.10
2022-11-15T19:06:49.491Z,7.10
2022-11-15T19:09:53.929Z,7.08
2022-11-15T19:12:57.673Z,7.04
2022-11-15T19:16:02.590Z,7.10
2022-11-15T19:19:07.982Z,7.10
2022-11-15T19:22:11.102Z,7.08
2022-11-15T19:25:15.430Z,7.11
2022-11-15T19:28:19.383Z,7.05
2022-11-15T19:31:24.612Z,7.05
2022-11-15T19:34:27.551Z,6.98
2022-11-15T19:37:30.617Z,6.97
2022-11-15T19:40:35.408Z,6.94
2022-11-15T19:43:38.614Z,6.92
2022-11-15T19:46:42.639Z,6.92
2022-11-15T19:49:46.543Z,6.84
2022-11-15T19:52:49.798Z,6.84
2022-11-15T19:55:59.105Z,6.79
2022-11-15T19:59:03.517Z,6.76
2022-11-15T20:02:06.460Z,6.73
2022-11-15T20:05:15.565Z,6.75
2022-11-15T20:08:21.312Z,6.67
2022-11-15T20:11:27.973Z,6.64
2022-11-15T20:14:32.135Z,6.65
2022-11-15T20:17:35.372Z,6.66
2022-11-15T20:20:38.434Z,6.65
2022-11-15T20:23:41.909Z,6.65
2022-11-15T20:26:46.928Z,6.62
2022-11-15T20:29:51.793Z,6.65
2022-11-15T20:32:55.123Z,6.66
2022-11-15T20:35:58.200Z,6.67
2022-11-15T20:39:01.815Z,6.57
2022-11-15T20:42:06.578Z,6.56
2022-11-15T20:45:10.776Z,6.48
2022-11-15T20:48:14.785Z,6.51
2022-11-15T20:51:19.576Z,6.55
2022-11-15T20:54:22.807Z,6.60
2022-11-15T20:57:27.189Z,6.62
2022-11-15T21:00:30.277Z,6.56
2022-11-15T21:03:33.687Z,6.52
2022-11-15T21:06:36.714Z,6.56
2022-11-15T21:09:57.267Z,6.56
2022-11-15T21:13:01.520Z,6.61
2022-11-15T21:16:05.558Z,6.63
2022-11-15T21:19:08.663Z,6.63
2022-11-15T21:22:15.060Z,6.58
2022-11-15T21:25:18.204Z,6.57
2022-11-15T21:28:24.325Z,6.52
2022-11-15T21:31:27.476Z,6.49
2022-11-15T21:34:30.406Z,6.48
2022-11-15T21:37:33.347Z,6.46
2022-11-15T21:40:36.436Z,6.49
2022-11-15T21:43:40.734Z,6.47
2022-11-15T21:46:43.717Z,6.50
2022-11-15T21:49:47.214Z,6.39
2022-11-15T21:52:50.146Z,6.21
2022-11-15T21:55:53.306Z,6.19
2022-11-15T21:58:58.753Z,6.15
2022-11-15T22:02:15.585Z,6.20
2022-11-15T22:05:18.510Z,6.14
2022-11-15T22:08:21.886Z,6.18
2022-11-15T22:11:24.975Z,6.14
2022-11-15T22:14:29.392Z,6.12
2022-11-15T22:17:46.326Z,6.11
2022-11-15T22:20:56.485Z,6.13
2022-11-15T22:23:59.692Z,6.06
2022-11-15T22:27:02.618Z,6.06
2022-11-15T22:30:11.543Z,5.99
2022-11-15T22:33:15.614Z,6.03
2022-11-15T22:36:18.692Z,6.03
2022-11-15T22:39:21.628Z,6.10
2022-11-15T22:42:24.709Z,6.15
2022-11-15T22:45:28.988Z,6.18
2022-11-15T22:48:35.052Z,6.15
2022-11-15T22:51:40.399Z,6.14
2022-11-15T22:54:46.003Z,6.10
2022-11-15T22:57:48.986Z,6.10
2022-11-15T23:00:56.573Z,6.07
2022-11-15T23:03:59.770Z,6.08
2022-11-15T23:07:02.861Z,6.15
2022-11-15T23:10:20.602Z,6.14
2022-11-15T23:13:24.484Z,5.99
2022-11-15T23:16:35.172Z,5.94
2022-11-15T23:19:38.106Z,5.90
2022-11-15T23:22:49.932Z,5.89
2022-11-15T23:25:59.707Z,5.87
2022-11-15T23:29:02.819Z,5.83
2022-11-15T23:32:30.618Z,5.85
2022-11-15T23:35:33.777Z,5.90
2022-11-15T23:38:38.171Z,5.91
2022-11-15T23:41:41.152Z,5.90
2022-11-15T23:44:44.324Z,5.79
2022-11-15T23:47:48.614Z,5.78
2022-11-15T23:50:51.548Z,5.72
2022-11-15T23:53:54.511Z,5.72
2022-11-15T23:56:57.627Z,5.63
